Terminal Aerodrome Forecast
Issued by NWS

Home | Current Version | Previous Version | Graphics & Text | Print | Product List | Glossary On
Versions: 1 2 3 4 5 6 7 8 9 10 11 12 13 14 15
691
FTUS43 KBIS 192323
TAFJMS
TAF
KJMS 192323Z 2000/2024 18008KT P6SM SKC
     FM200800 16007KT P6SM SKC WS020/22035KT
     FM202100 17019G28KT P6SM FEW250=

USA.gov is the U.S. government's official web portal to all federal, state and local government web resources and services.